createdAt,value
2023-04-08T00:00:12.066Z,17.77
2023-04-08T00:02:39.131Z,16.87
2023-04-08T00:05:06.910Z,17.57
2023-04-08T00:07:33.798Z,17.03
2023-04-08T00:10:00.395Z,17.47
2023-04-08T00:12:27.203Z,16.37
2023-04-08T00:14:53.807Z,17.47
2023-04-08T00:17:20.599Z,17.50
2023-04-08T00:19:47.416Z,17.03
2023-04-08T00:22:14.017Z,16.87
2023-04-08T00:24:41.015Z,16.73
2023-04-08T00:27:07.827Z,17.90
2023-04-08T00:29:34.525Z,17.03
2023-04-08T00:32:01.111Z,17.97
2023-04-08T00:34:27.797Z,17.03
2023-04-08T00:36:54.434Z,16.67
2023-04-08T00:39:21.208Z,16.80
2023-04-08T00:41:47.784Z,16.57
2023-04-08T00:44:14.377Z,17.03
2023-04-08T00:46:43.733Z,16.93
2023-04-08T00:49:10.564Z,18.00
2023-04-08T00:51:37.222Z,17.30
2023-04-08T00:54:05.213Z,16.77
2023-04-08T00:56:32.996Z,16.50
2023-04-08T00:59:00.921Z,17.27
2023-04-08T01:02:09.979Z,16.63
2023-04-08T01:05:08.506Z,17.20
2023-04-08T01:07:40.486Z,17.97
2023-04-08T01:10:21.370Z,18.23
2023-04-08T01:12:55.367Z,18.63
2023-04-08T01:15:22.538Z,18.27
2023-04-08T01:17:53.182Z,18.33
2023-04-08T01:20:20.645Z,18.03
2023-04-08T01:23:22.356Z,18.00
2023-04-08T01:25:55.710Z,18.43
2023-04-08T01:28:25.348Z,18.53
2023-04-08T01:30:54.914Z,17.30
2023-04-08T01:33:22.563Z,18.27
2023-04-08T01:35:51.284Z,18.23
2023-04-08T01:38:20.573Z,18.47
2023-04-08T01:40:48.222Z,19.37
2023-04-08T01:43:18.407Z,18.27
2023-04-08T01:45:47.035Z,18.37
2023-04-08T01:48:14.879Z,18.57
2023-04-08T01:50:45.760Z,18.70
2023-04-08T01:53:13.413Z,18.40
2023-04-08T01:55:42.156Z,18.77
2023-04-08T01:58:12.413Z,17.83
2023-04-08T02:00:42.910Z,18.87
2023-04-08T02:03:13.375Z,18.10
2023-04-08T02:05:43.343Z,17.23
2023-04-08T02:08:09.970Z,17.77
2023-04-08T02:10:38.729Z,19.03
2023-04-08T02:13:05.746Z,18.20
2023-04-08T02:15:36.371Z,16.80
2023-04-08T02:18:12.574Z,18.00
2023-04-08T02:20:48.482Z,17.67
2023-04-08T02:23:22.337Z,19.00
2023-04-08T02:28:19.099Z,19.73
2023-04-08T02:30:54.867Z,17.83
2023-04-08T02:33:23.422Z,18.87
2023-04-08T02:35:54.993Z,18.23
2023-04-08T02:38:22.144Z,19.23
2023-04-08T02:40:51.414Z,19.37
2023-04-08T02:43:18.333Z,18.90
2023-04-08T02:45:45.659Z,17.50
2023-04-08T02:48:12.975Z,18.83
2023-04-08T02:50:40.804Z,18.13
2023-04-08T02:53:08.761Z,18.30
2023-04-08T02:55:35.516Z,18.40
2023-04-08T02:58:02.141Z,17.93
2023-04-08T03:00:28.850Z,18.37
2023-04-08T03:02:55.744Z,18.67
2023-04-08T03:05:22.492Z,17.83
2023-04-08T03:07:49.062Z,18.73
2023-04-08T03:10:15.987Z,18.33
2023-04-08T03:12:42.554Z,17.60
2023-04-08T03:15:09.629Z,19.27
2023-04-08T03:17:36.370Z,18.23
2023-04-08T03:20:07.025Z,18.70
2023-04-08T03:22:34.433Z,17.93
2023-04-08T03:25:01.012Z,18.90
2023-04-08T03:27:27.625Z,18.10
2023-04-08T03:29:54.282Z,17.73
2023-04-08T03:32:21.158Z,18.17
2023-04-08T03:34:50.213Z,17.50
2023-04-08T03:37:22.456Z,16.67
2023-04-08T03:39:49.450Z,16.70
2023-04-08T03:42:16.154Z,19.10
2023-04-08T03:44:42.781Z,18.03
2023-04-08T03:47:09.346Z,17.70
2023-04-08T03:49:36.352Z,17.97
2023-04-08T03:52:02.948Z,17.53
2023-04-08T03:54:29.523Z,17.90
2023-04-08T03:56:56.593Z,17.83
2023-04-08T03:59:23.345Z,18.43
2023-04-08T04:01:51.580Z,17.17
2023-04-08T04:04:18.853Z,17.43
2023-04-08T04:06:45.875Z,17.50
2023-04-08T04:09:12.779Z,17.87
2023-04-08T04:11:39.604Z,17.40
2023-04-08T04:14:06.220Z,17.23
2023-04-08T04:16:33.197Z,16.97
2023-04-08T04:19:00.105Z,17.30
2023-04-08T04:21:27.411Z,18.33
2023-04-08T04:23:54.205Z,17.33
2023-04-08T04:26:21.310Z,17.67
2023-04-08T04:28:48.150Z,16.03
2023-04-08T04:31:26.640Z,17.30
2023-04-08T04:33:53.577Z,16.93
2023-04-08T04:36:20.260Z,16.97
2023-04-08T04:38:49.627Z,16.43
2023-04-08T04:41:17.161Z,17.07
2023-04-08T04:43:43.776Z,16.13
2023-04-08T04:46:12.889Z,17.97
2023-04-08T04:48:39.537Z,17.03
2023-04-08T04:51:07.710Z,17.30
2023-04-08T04:53:34.479Z,17.67
2023-04-08T04:56:03.666Z,18.30
2023-04-08T04:58:30.965Z,17.83
2023-04-08T05:00:57.864Z,16.63
2023-04-08T05:03:25.131Z,17.73
2023-04-08T05:05:53.251Z,17.03
2023-04-08T05:08:22.717Z,16.57
2023-04-08T05:10:50.935Z,17.70
2023-04-08T05:13:18.689Z,16.80
2023-04-08T05:15:47.805Z,16.83
2023-04-08T05:18:14.980Z,17.70
2023-04-08T05:20:41.745Z,18.60
2023-04-08T05:23:08.951Z,20.07
2023-04-08T05:25:35.806Z,22.20
2023-04-08T05:28:05.894Z,23.53
2023-04-08T05:30:34.940Z,22.47
2023-04-08T05:33:01.952Z,23.30
2023-04-08T05:35:29.383Z,24.23
2023-04-08T05:37:56.500Z,24.73
2023-04-08T05:40:23.197Z,23.77
2023-04-08T05:42:49.986Z,23.20
2023-04-08T05:45:16.819Z,24.57
2023-04-08T05:47:43.752Z,25.97
2023-04-08T05:50:11.694Z,25.80
2023-04-08T05:52:43.798Z,26.93
2023-04-08T05:55:11.366Z,29.27
2023-04-08T05:57:38.212Z,30.63
2023-04-08T06:00:10.819Z,31.67
2023-04-08T06:02:39.941Z,32.23
2023-04-08T06:05:07.053Z,33.17
2023-04-08T06:07:34.473Z,31.97
2023-04-08T06:10:01.305Z,32.77
2023-04-08T06:12:27.963Z,33.17
2023-04-08T06:14:57.431Z,31.50
2023-04-08T06:17:24.057Z,31.47
2023-04-08T06:19:50.742Z,29.57
2023-04-08T06:22:17.517Z,30.20
2023-04-08T06:24:44.172Z,31.23
2023-04-08T06:27:10.828Z,31.00
2023-04-08T06:29:37.428Z,36.97
2023-04-08T06:32:04.441Z,38.77
2023-04-08T06:34:31.116Z,41.30
2023-04-08T06:36:57.704Z,42.07
2023-04-08T06:39:24.561Z,43.07
2023-04-08T06:41:51.381Z,42.47
2023-04-08T06:44:18.368Z,39.53
2023-04-08T06:46:44.935Z,41.47
2023-04-08T06:49:13.040Z,39.27
2023-04-08T06:51:39.641Z,42.37
2023-04-08T06:54:06.295Z,42.70
2023-04-08T06:56:32.924Z,39.67
2023-04-08T06:58:59.687Z,42.47
2023-04-08T07:01:26.561Z,42.60
2023-04-08T07:03:53.302Z,42.03
2023-04-08T07:06:19.915Z,39.80
2023-04-08T07:08:46.579Z,38.57
2023-04-08T07:11:13.230Z,38.30
2023-04-08T07:13:41.924Z,40.30
2023-04-08T07:16:08.589Z,35.33
2023-04-08T07:18:35.651Z,35.50
2023-04-08T07:21:02.572Z,34.83
2023-04-08T07:23:29.217Z,35.43
2023-04-08T07:25:55.861Z,35.27
2023-04-08T07:28:22.529Z,35.73
2023-04-08T07:30:49.126Z,35.27
2023-04-08T07:33:16.298Z,37.00
2023-04-08T07:35:43.081Z,36.57
2023-04-08T07:38:11.722Z,31.97
2023-04-08T07:40:38.347Z,30.63
2023-04-08T07:43:05.002Z,30.10
2023-04-08T07:45:31.808Z,32.97
2023-04-08T07:47:58.559Z,31.97
2023-04-08T07:50:25.252Z,30.43
2023-04-08T07:52:53.442Z,26.07
2023-04-08T07:55:20.506Z,24.60
2023-04-08T07:57:47.464Z,33.73
2023-04-08T08:00:20.935Z,29.97
2023-04-08T08:02:48.819Z,30.57
2023-04-08T08:05:15.628Z,31.03
2023-04-08T08:07:42.505Z,31.57
2023-04-08T08:10:09.970Z,35.17
2023-04-08T08:12:36.792Z,35.83
2023-04-08T08:15:06.332Z,37.30
2023-04-08T08:17:35.731Z,41.70
2023-04-08T08:20:04.415Z,46.67
2023-04-08T08:22:31.003Z,44.67
2023-04-08T08:24:58.235Z,48.60
2023-04-08T08:27:26.185Z,48.43
2023-04-08T08:29:53.085Z,45.70
2023-04-08T08:32:19.865Z,46.00
2023-04-08T08:34:46.634Z,48.03
2023-04-08T08:37:13.245Z,48.83
2023-04-08T08:39:40.315Z,46.00
2023-04-08T08:42:19.249Z,47.10
2023-04-08T08:44:45.939Z,46.73
2023-04-08T08:47:12.573Z,48.63
2023-04-08T08:49:39.251Z,48.07
2023-04-08T08:52:07.079Z,48.23
2023-04-08T08:54:33.724Z,50.07
2023-04-08T08:57:00.597Z,48.57
2023-04-08T08:59:27.866Z,49.83
2023-04-08T09:01:54.533Z,46.90
2023-04-08T09:04:23.065Z,48.57
2023-04-08T09:07:08.907Z,46.93
2023-04-08T09:09:51.851Z,46.60
2023-04-08T09:12:19.137Z,48.13
2023-04-08T09:14:46.575Z,45.60
2023-04-08T09:17:13.278Z,44.50
2023-04-08T09:19:40.620Z,39.43
2023-04-08T09:22:09.087Z,39.87
2023-04-08T09:24:37.468Z,40.73
2023-04-08T09:27:05.804Z,40.40
2023-04-08T09:29:35.241Z,34.23
2023-04-08T09:32:03.735Z,33.67
2023-04-08T09:34:34.588Z,32.20
2023-04-08T09:37:01.567Z,35.30
2023-04-08T09:39:28.184Z,34.17
2023-04-08T09:41:59.200Z,28.87
2023-04-08T09:44:28.769Z,28.87
2023-04-08T09:47:01.569Z,27.23
2023-04-08T09:49:28.197Z,27.27
2023-04-08T09:52:05.371Z,28.43
2023-04-08T09:54:37.239Z,28.03
2023-04-08T09:57:13.891Z,24.73
2023-04-08T09:59:49.627Z,24.97
2023-04-08T10:02:22.622Z,23.13
2023-04-08T10:04:52.679Z,21.47
2023-04-08T10:07:19.445Z,20.83
2023-04-08T10:09:46.417Z,22.20
2023-04-08T10:12:13.063Z,21.27
2023-04-08T10:14:39.712Z,19.73
2023-04-08T10:17:27.658Z,19.33
2023-04-08T10:19:54.970Z,18.80
2023-04-08T10:22:33.943Z,19.60
2023-04-08T10:25:16.936Z,16.60
2023-04-08T10:27:45.176Z,15.57
2023-04-08T10:30:31.953Z,16.63
2023-04-08T10:33:00.418Z,16.50
2023-04-08T10:35:36.766Z,14.63
2023-04-08T10:38:04.009Z,16.17
2023-04-08T10:40:39.175Z,12.33
2023-04-08T10:43:06.222Z,11.30
2023-04-08T10:45:33.363Z,11.50
2023-04-08T10:48:11.920Z,10.10
2023-04-08T10:50:38.501Z,9.70
2023-04-08T10:53:05.144Z,10.07
2023-04-08T10:55:32.435Z,8.27
2023-04-08T10:58:17.699Z,8.27
2023-04-08T11:00:44.388Z,8.97
2023-04-08T11:03:13.715Z,8.43
2023-04-08T11:05:42.134Z,9.47
2023-04-08T11:08:08.750Z,9.37
2023-04-08T11:10:39.181Z,9.77
2023-04-08T11:13:10.034Z,8.43
2023-04-08T11:15:37.478Z,8.33
2023-04-08T11:18:06.084Z,9.27
2023-04-08T11:20:37.228Z,9.70
2023-04-08T11:23:03.915Z,9.60
2023-04-08T11:25:30.723Z,9.07
2023-04-08T11:27:57.628Z,9.03
2023-04-08T11:30:24.622Z,8.80
2023-04-08T11:32:54.033Z,8.57
2023-04-08T11:35:20.965Z,8.97
2023-04-08T11:37:49.864Z,8.67
2023-04-08T11:40:22.021Z,8.23
2023-04-08T11:42:48.911Z,8.23
2023-04-08T11:45:20.086Z,8.77
2023-04-08T11:47:47.786Z,8.37
2023-04-08T11:50:24.860Z,8.20
2023-04-08T11:52:52.765Z,7.87
2023-04-08T11:55:30.407Z,8.33
2023-04-08T11:58:02.132Z,8.43
2023-04-08T12:00:28.758Z,8.43
2023-04-08T12:02:55.892Z,9.40
2023-04-08T12:05:22.535Z,8.83
2023-04-08T12:07:49.171Z,8.70
2023-04-08T12:10:16.246Z,9.37
2023-04-08T12:12:42.877Z,8.47
2023-04-08T12:15:10.230Z,8.70
2023-04-08T12:17:39.070Z,9.23
2023-04-08T12:20:06.746Z,7.90
2023-04-08T12:22:33.767Z,6.57
2023-04-08T12:25:00.470Z,6.43
2023-04-08T12:27:27.061Z,7.20
2023-04-08T12:29:53.645Z,6.80
2023-04-08T12:32:20.622Z,6.10
2023-04-08T12:34:47.480Z,6.17
2023-04-08T12:37:14.123Z,5.80
2023-04-08T12:39:40.783Z,5.97
2023-04-08T12:42:07.359Z,5.50
2023-04-08T12:44:33.979Z,5.30
2023-04-08T12:47:00.593Z,5.17
2023-04-08T12:49:28.153Z,5.33
2023-04-08T12:51:55.219Z,5.10
2023-04-08T12:54:21.918Z,5.20
2023-04-08T12:56:49.106Z,5.30
2023-04-08T12:59:16.193Z,5.20
2023-04-08T13:01:43.380Z,5.87
2023-04-08T13:04:10.223Z,5.70
2023-04-08T13:06:36.875Z,5.67
2023-04-08T13:09:03.787Z,5.60
2023-04-08T13:11:34.237Z,5.83
2023-04-08T13:14:00.895Z,5.60
2023-04-08T13:16:27.874Z,6.23
2023-04-08T13:18:54.522Z,5.70
2023-04-08T13:21:21.551Z,6.50
2023-04-08T13:23:48.583Z,5.83
2023-04-08T13:26:15.206Z,5.63
2023-04-08T13:28:55.875Z,6.30
2023-04-08T13:31:29.360Z,6.07
2023-04-08T13:33:58.229Z,6.90
2023-04-08T13:36:25.125Z,6.53
2023-04-08T13:38:52.194Z,6.07
2023-04-08T13:41:21.252Z,6.73
2023-04-08T13:43:47.883Z,7.50
2023-04-08T13:46:18.601Z,6.93
2023-04-08T13:48:46.091Z,7.60
2023-04-08T13:51:12.751Z,7.10
2023-04-08T13:53:39.368Z,7.17
2023-04-08T13:56:06.213Z,6.90
2023-04-08T13:58:32.822Z,8.27
2023-04-08T14:00:59.435Z,9.60
2023-04-08T14:03:26.919Z,9.53
2023-04-08T14:05:53.932Z,10.50
2023-04-08T14:08:25.722Z,10.60
2023-04-08T14:11:01.481Z,9.33
2023-04-08T14:13:28.184Z,9.43
2023-04-08T14:15:58.471Z,9.80
2023-04-08T14:18:25.969Z,8.67
2023-04-08T14:20:52.774Z,9.63
2023-04-08T14:23:19.348Z,8.77
2023-04-08T14:25:45.933Z,8.30
2023-04-08T14:28:12.698Z,8.33
2023-04-08T14:30:39.306Z,8.33
2023-04-08T14:33:06.409Z,8.83
2023-04-08T14:35:33.158Z,8.53
2023-04-08T14:38:00.356Z,9.07
2023-04-08T14:40:26.967Z,9.03
2023-04-08T14:42:54.081Z,9.53
2023-04-08T14:45:20.845Z,9.30
2023-04-08T14:47:47.486Z,10.30
2023-04-08T14:50:14.216Z,10.13
2023-04-08T14:52:41.122Z,9.53
2023-04-08T14:55:07.978Z,10.07
2023-04-08T14:57:35.019Z,10.77
2023-04-08T15:00:02.023Z,10.53
2023-04-08T15:02:29.090Z,9.80
2023-04-08T15:04:56.123Z,10.50
2023-04-08T15:07:22.833Z,13.00
2023-04-08T15:09:49.407Z,12.70
2023-04-08T15:12:16.024Z,12.10
2023-04-08T15:14:42.599Z,12.00
2023-04-08T15:17:10.328Z,11.40
2023-04-08T15:19:36.979Z,11.80
2023-04-08T15:22:04.126Z,11.80
2023-04-08T15:24:30.763Z,12.57
2023-04-08T15:26:59.542Z,12.40
2023-04-08T15:29:26.286Z,11.63
2023-04-08T15:31:52.905Z,11.77
2023-04-08T15:34:19.476Z,11.10
2023-04-08T15:36:47.529Z,11.33
2023-04-08T15:39:14.265Z,10.30
2023-04-08T15:41:40.889Z,10.77
2023-04-08T15:44:07.505Z,11.60
2023-04-08T15:46:35.557Z,11.63
2023-04-08T15:49:03.948Z,11.73
2023-04-08T15:51:30.568Z,11.73
2023-04-08T15:53:57.966Z,12.90
2023-04-08T15:56:24.763Z,12.90
2023-04-08T15:58:52.403Z,13.07
2023-04-08T16:01:20.381Z,12.43
2023-04-08T16:03:47.092Z,13.20
2023-04-08T16:06:13.885Z,12.77
2023-04-08T16:08:40.761Z,13.43
2023-04-08T16:11:08.247Z,12.47
2023-04-08T16:13:35.129Z,14.00
2023-04-08T16:16:04.318Z,12.17
2023-04-08T16:18:31.239Z,13.60
2023-04-08T16:20:58.025Z,14.93
2023-04-08T16:23:25.044Z,15.47
2023-04-08T16:25:52.289Z,14.70
2023-04-08T16:28:18.891Z,14.67
2023-04-08T16:30:48.004Z,14.10
2023-04-08T16:33:15.088Z,15.23
2023-04-08T16:35:42.143Z,15.67
2023-04-08T16:38:09.179Z,16.13
2023-04-08T16:40:35.795Z,16.30
2023-04-08T16:43:04.590Z,16.63
2023-04-08T16:45:32.759Z,15.43
2023-04-08T16:48:00.709Z,18.47
2023-04-08T16:50:28.627Z,18.57
2023-04-08T16:52:55.365Z,20.03
2023-04-08T16:55:25.095Z,21.27
2023-04-08T16:57:51.747Z,22.20
2023-04-08T17:00:21.023Z,20.67
2023-04-08T17:02:47.982Z,20.93
2023-04-08T17:05:14.729Z,20.63
2023-04-08T17:07:41.380Z,21.33
2023-04-08T17:10:08.678Z,20.33
2023-04-08T17:12:36.441Z,19.57
2023-04-08T17:15:03.743Z,19.83
2023-04-08T17:17:30.499Z,20.97
2023-04-08T17:19:57.202Z,19.00
2023-04-08T17:22:23.795Z,19.27
2023-04-08T17:24:50.422Z,18.73
2023-04-08T17:27:17.237Z,17.83
2023-04-08T17:29:46.153Z,17.80
2023-04-08T17:32:13.389Z,18.53
2023-04-08T17:34:41.160Z,17.80
2023-04-08T17:37:08.287Z,19.17
2023-04-08T17:39:40.841Z,17.47
2023-04-08T17:42:08.457Z,16.83
2023-04-08T17:44:35.991Z,15.00
2023-04-08T17:47:03.842Z,15.67
2023-04-08T17:49:30.525Z,14.87
2023-04-08T17:51:58.267Z,14.57
2023-04-08T17:54:25.165Z,15.33
2023-04-08T17:56:51.914Z,15.60
2023-04-08T17:59:18.630Z,15.63
2023-04-08T18:01:45.381Z,15.03
2023-04-08T18:04:12.890Z,15.80
2023-04-08T18:06:39.705Z,17.37
2023-04-08T18:09:06.283Z,17.80
2023-04-08T18:11:33.022Z,15.97
2023-04-08T18:13:59.672Z,18.90
2023-04-08T18:16:26.276Z,18.17
2023-04-08T18:18:52.949Z,18.50
2023-04-08T18:21:19.898Z,19.80
2023-04-08T18:23:49.618Z,21.00
2023-04-08T18:26:16.627Z,21.53
2023-04-08T18:28:43.280Z,20.40
2023-04-08T18:31:10.334Z,20.73
2023-04-08T18:33:39.406Z,20.30
2023-04-08T18:36:10.675Z,20.43
2023-04-08T18:38:38.422Z,19.40
2023-04-08T18:41:05.051Z,19.17
2023-04-08T18:43:34.387Z,20.20
2023-04-08T18:46:03.492Z,19.27
2023-04-08T18:48:30.437Z,19.63
2023-04-08T18:50:57.704Z,18.27
2023-04-08T18:53:24.374Z,20.40
2023-04-08T18:55:53.813Z,19.57
2023-04-08T18:58:23.026Z,18.80
2023-04-08T19:00:49.727Z,19.33
2023-04-08T19:03:16.464Z,19.37
2023-04-08T19:05:43.186Z,20.23
2023-04-08T19:08:09.786Z,19.80
2023-04-08T19:10:38.643Z,19.37
2023-04-08T19:13:05.418Z,20.43
2023-04-08T19:15:32.162Z,19.63
2023-04-08T19:17:59.248Z,19.20
2023-04-08T19:20:28.664Z,19.70
2023-04-08T19:22:57.790Z,20.63
2023-04-08T19:25:24.368Z,19.03
2023-04-08T19:27:51.268Z,20.00
2023-04-08T19:30:17.935Z,20.30
2023-04-08T19:32:46.612Z,21.43
2023-04-08T19:35:13.599Z,21.50
2023-04-08T19:37:40.633Z,24.73
2023-04-08T19:40:08.730Z,25.00
2023-04-08T19:42:35.628Z,26.23
2023-04-08T19:45:02.776Z,25.93
2023-04-08T19:47:29.772Z,25.83
2023-04-08T19:49:58.353Z,23.23
2023-04-08T19:52:25.180Z,26.43
2023-04-08T19:54:52.380Z,26.67
2023-04-08T19:57:19.979Z,25.47
2023-04-08T19:59:48.792Z,25.30
2023-04-08T20:02:15.727Z,25.63
2023-04-08T20:04:42.640Z,26.23
2023-04-08T20:07:09.484Z,26.80
2023-04-08T20:09:36.245Z,26.23
2023-04-08T20:12:06.170Z,26.73
2023-04-08T20:14:34.130Z,25.40
2023-04-08T20:17:00.807Z,26.03
2023-04-08T20:19:27.419Z,24.87
2023-04-08T20:21:54.265Z,27.07
2023-04-08T20:24:20.869Z,29.33
2023-04-08T20:26:47.741Z,27.90
2023-04-08T20:29:14.409Z,29.70
2023-04-08T20:31:41.104Z,29.37
2023-04-08T20:34:08.635Z,28.47
2023-04-08T20:36:35.484Z,27.97
2023-04-08T20:39:02.556Z,27.07
2023-04-08T20:41:29.599Z,28.40
2023-04-08T20:43:56.216Z,27.73
2023-04-08T20:46:23.255Z,26.37
2023-04-08T20:48:50.412Z,26.87
2023-04-08T20:51:17.670Z,25.57
2023-04-08T20:53:44.646Z,27.30
2023-04-08T20:56:11.508Z,25.60
2023-04-08T20:58:38.138Z,24.43
2023-04-08T21:01:04.915Z,24.57
2023-04-08T21:03:31.628Z,26.40
2023-04-08T21:05:58.739Z,25.30
2023-04-08T21:08:25.589Z,25.17
2023-04-08T21:10:54.264Z,24.30
2023-04-08T21:13:21.608Z,24.77
2023-04-08T21:15:48.260Z,23.67
2023-04-08T21:18:14.882Z,23.80
2023-04-08T21:20:44.585Z,23.47
2023-04-08T21:23:11.221Z,23.57
2023-04-08T21:25:37.768Z,23.87
2023-04-08T21:28:04.349Z,23.27
2023-04-08T21:30:30.955Z,23.53
2023-04-08T21:32:58.071Z,22.80
2023-04-08T21:35:24.685Z,22.83
2023-04-08T21:37:51.599Z,23.90
2023-04-08T21:40:18.297Z,22.67
2023-04-08T21:42:46.086Z,23.37
2023-04-08T21:45:12.773Z,22.73
2023-04-08T21:47:39.476Z,23.30
2023-04-08T21:50:06.993Z,22.50
2023-04-08T21:52:33.856Z,22.77
2023-04-08T21:55:01.025Z,22.37
2023-04-08T21:57:28.176Z,22.23
2023-04-08T21:59:54.743Z,21.27
2023-04-08T22:02:21.745Z,22.20
2023-04-08T22:04:49.022Z,22.33
2023-04-08T22:07:18.009Z,21.90
2023-04-08T22:09:44.848Z,21.13
2023-04-08T22:12:11.636Z,22.10
2023-04-08T22:14:38.256Z,20.93
2023-04-08T22:17:05.782Z,22.93
2023-04-08T22:19:32.486Z,23.17
2023-04-08T22:21:59.068Z,22.57
2023-04-08T22:24:27.742Z,22.87
2023-04-08T22:26:54.641Z,21.40
2023-04-08T22:29:21.338Z,20.00
2023-04-08T22:31:47.997Z,20.60
2023-04-08T22:34:14.647Z,20.73
2023-04-08T22:36:41.740Z,20.77
2023-04-08T22:39:08.669Z,19.50
2023-04-08T22:41:35.594Z,20.17
2023-04-08T22:44:02.278Z,20.20
2023-04-08T22:46:28.968Z,20.43
2023-04-08T22:48:55.748Z,19.83
2023-04-08T22:51:22.675Z,20.23
2023-04-08T22:53:49.441Z,20.63
2023-04-08T22:56:16.207Z,20.90
2023-04-08T22:58:42.886Z,20.43
2023-04-08T23:01:14.909Z,20.90
2023-04-08T23:03:41.947Z,21.10
2023-04-08T23:06:08.774Z,21.20
2023-04-08T23:08:35.669Z,21.47
2023-04-08T23:11:02.292Z,20.40
2023-04-08T23:13:29.251Z,19.90
2023-04-08T23:15:55.987Z,19.87
2023-04-08T23:18:22.686Z,20.80
2023-04-08T23:20:52.988Z,21.13
2023-04-08T23:23:20.744Z,21.23
2023-04-08T23:25:48.005Z,19.67
2023-04-08T23:28:14.601Z,21.43
2023-04-08T23:30:41.282Z,20.87
2023-04-08T23:33:08.243Z,20.37
2023-04-08T23:35:34.891Z,20.03
2023-04-08T23:38:01.732Z,20.40
2023-04-08T23:40:28.332Z,21.20
2023-04-08T23:42:55.409Z,20.53
2023-04-08T23:45:22.010Z,20.37
2023-04-08T23:47:48.635Z,22.50
2023-04-08T23:50:15.745Z,21.43
2023-04-08T23:52:42.373Z,21.33
2023-04-08T23:55:09.401Z,20.80
2023-04-08T23:57:36.027Z,19.73
